sensor_id;sensor_type;location;lat;lon;timestamp;P1;durP1;ratioP1;P2;durP2;ratioP2
8159;SDS011;27404;52.398;9.646;2023-02-28T00:00:17;11.63;;;5.30;;
8159;SDS011;27404;52.398;9.646;2023-02-28T00:02:43;9.93;;;4.90;;
8159;SDS011;27404;52.398;9.646;2023-02-28T00:05:10;9.03;;;5.03;;
8159;SDS011;27404;52.398;9.646;2023-02-28T00:07:37;10.13;;;4.77;;
8159;SDS011;27404;52.398;9.646;2023-02-28T00:10:03;8.13;;;4.97;;
8159;SDS011;27404;52.398;9.646;2023-02-28T00:12:31;9.63;;;5.10;;
8159;SDS011;27404;52.398;9.646;2023-02-28T00:14:57;10.47;;;5.07;;
8159;SDS011;27404;52.398;9.646;2023-02-28T00:17:22;10.87;;;5.03;;
8159;SDS011;27404;52.398;9.646;2023-02-28T00:19:48;10.93;;;5.60;;
8159;SDS011;27404;52.398;9.646;2023-02-28T00:22:15;9.67;;;5.40;;
8159;SDS011;27404;52.398;9.646;2023-02-28T00:24:42;8.93;;;4.93;;
8159;SDS011;27404;52.398;9.646;2023-02-28T00:27:08;8.77;;;5.13;;
8159;SDS011;27404;52.398;9.646;2023-02-28T00:29:33;9.23;;;5.13;;
8159;SDS011;27404;52.398;9.646;2023-02-28T00:31:58;9.10;;;5.50;;
8159;SDS011;27404;52.398;9.646;2023-02-28T00:34:24;11.33;;;5.60;;
8159;SDS011;27404;52.398;9.646;2023-02-28T00:36:49;8.20;;;5.03;;
8159;SDS011;27404;52.398;9.646;2023-02-28T00:39:15;11.67;;;6.50;;
8159;SDS011;27404;52.398;9.646;2023-02-28T00:41:41;10.90;;;6.03;;
8159;SDS011;27404;52.398;9.646;2023-02-28T00:44:06;7.90;;;5.37;;
8159;SDS011;27404;52.398;9.646;2023-02-28T00:46:32;11.33;;;5.93;;
8159;SDS011;27404;52.398;9.646;2023-02-28T00:48:57;8.70;;;5.30;;
8159;SDS011;27404;52.398;9.646;2023-02-28T00:51:23;8.80;;;5.23;;
8159;SDS011;27404;52.398;9.646;2023-02-28T00:53:48;11.30;;;5.70;;
8159;SDS011;27404;52.398;9.646;2023-02-28T00:56:14;10.93;;;5.80;;
8159;SDS011;27404;52.398;9.646;2023-02-28T00:58:39;7.33;;;4.90;;
8159;SDS011;27404;52.398;9.646;2023-02-28T01:01:05;9.07;;;5.23;;
8159;SDS011;27404;52.398;9.646;2023-02-28T01:03:31;9.30;;;5.30;;
8159;SDS011;27404;52.398;9.646;2023-02-28T01:05:57;12.67;;;5.33;;
8159;SDS011;27404;52.398;9.646;2023-02-28T01:08:23;10.23;;;6.00;;
8159;SDS011;27404;52.398;9.646;2023-02-28T01:10:48;16.53;;;6.90;;
8159;SDS011;27404;52.398;9.646;2023-02-28T01:13:14;11.43;;;6.90;;
8159;SDS011;27404;52.398;9.646;2023-02-28T01:15:40;15.90;;;7.37;;
8159;SDS011;27404;52.398;9.646;2023-02-28T01:18:10;9.27;;;6.17;;
8159;SDS011;27404;52.398;9.646;2023-02-28T01:20:38;13.77;;;6.07;;
8159;SDS011;27404;52.398;9.646;2023-02-28T01:23:04;12.07;;;6.73;;
8159;SDS011;27404;52.398;9.646;2023-02-28T01:25:29;12.40;;;6.37;;
8159;SDS011;27404;52.398;9.646;2023-02-28T01:27:55;9.40;;;5.93;;
8159;SDS011;27404;52.398;9.646;2023-02-28T01:30:20;11.37;;;6.70;;
8159;SDS011;27404;52.398;9.646;2023-02-28T01:32:46;9.40;;;5.50;;
8159;SDS011;27404;52.398;9.646;2023-02-28T01:35:11;10.67;;;6.00;;
8159;SDS011;27404;52.398;9.646;2023-02-28T01:37:37;11.33;;;6.33;;
8159;SDS011;27404;52.398;9.646;2023-02-28T01:40:02;11.40;;;5.93;;
8159;SDS011;27404;52.398;9.646;2023-02-28T01:42:28;8.73;;;5.70;;
8159;SDS011;27404;52.398;9.646;2023-02-28T01:45:06;10.07;;;5.33;;
8159;SDS011;27404;52.398;9.646;2023-02-28T01:47:45;10.13;;;5.27;;
8159;SDS011;27404;52.398;9.646;2023-02-28T01:50:15;10.57;;;5.30;;
8159;SDS011;27404;52.398;9.646;2023-02-28T01:52:44;10.40;;;5.77;;
8159;SDS011;27404;52.398;9.646;2023-02-28T01:55:12;9.30;;;5.53;;
8159;SDS011;27404;52.398;9.646;2023-02-28T01:57:40;10.30;;;5.73;;
8159;SDS011;27404;52.398;9.646;2023-02-28T02:00:12;11.53;;;6.20;;
8159;SDS011;27404;52.398;9.646;2023-02-28T02:02:43;11.37;;;5.57;;
8159;SDS011;27404;52.398;9.646;2023-02-28T02:07:41;10.97;;;5.60;;
8159;SDS011;27404;52.398;9.646;2023-02-28T02:10:12;11.70;;;6.33;;
8159;SDS011;27404;52.398;9.646;2023-02-28T02:15:24;10.63;;;6.10;;
8159;SDS011;27404;52.398;9.646;2023-02-28T02:17:56;14.07;;;7.37;;
8159;SDS011;27404;52.398;9.646;2023-02-28T02:20:50;11.60;;;7.10;;
8159;SDS011;27404;52.398;9.646;2023-02-28T02:45:16;11.47;;;6.43;;
8159;SDS011;27404;52.398;9.646;2023-02-28T02:47:43;10.47;;;6.37;;
8159;SDS011;27404;52.398;9.646;2023-02-28T02:50:12;10.43;;;6.30;;
8159;SDS011;27404;52.398;9.646;2023-02-28T02:52:44;14.13;;;6.33;;
8159;SDS011;27404;52.398;9.646;2023-02-28T02:55:14;10.70;;;6.50;;
8159;SDS011;27404;52.398;9.646;2023-02-28T02:57:46;9.90;;;6.00;;
8159;SDS011;27404;52.398;9.646;2023-02-28T03:00:16;9.83;;;6.17;;
8159;SDS011;27404;52.398;9.646;2023-02-28T03:02:44;12.83;;;6.23;;
8159;SDS011;27404;52.398;9.646;2023-02-28T03:05:15;12.40;;;5.97;;
8159;SDS011;27404;52.398;9.646;2023-02-28T03:07:46;14.53;;;6.57;;
8159;SDS011;27404;52.398;9.646;2023-02-28T03:12:54;10.97;;;5.70;;
8159;SDS011;27404;52.398;9.646;2023-02-28T03:21:21;11.67;;;5.93;;
8159;SDS011;27404;52.398;9.646;2023-02-28T03:26:34;11.10;;;5.93;;
8159;SDS011;27404;52.398;9.646;2023-02-28T03:29:19;13.87;;;6.70;;
8159;SDS011;27404;52.398;9.646;2023-02-28T03:32:16;12.77;;;6.27;;
8159;SDS011;27404;52.398;9.646;2023-02-28T03:34:48;10.97;;;5.70;;
8159;SDS011;27404;52.398;9.646;2023-02-28T03:37:22;13.70;;;6.17;;
8159;SDS011;27404;52.398;9.646;2023-02-28T03:39:53;11.87;;;6.33;;
8159;SDS011;27404;52.398;9.646;2023-02-28T03:42:26;12.97;;;6.73;;
8159;SDS011;27404;52.398;9.646;2023-02-28T03:44:56;11.87;;;6.03;;
8159;SDS011;27404;52.398;9.646;2023-02-28T03:49:53;9.23;;;5.60;;
8159;SDS011;27404;52.398;9.646;2023-02-28T03:52:25;15.77;;;6.30;;
8159;SDS011;27404;52.398;9.646;2023-02-28T03:54:56;10.30;;;5.63;;
8159;SDS011;27404;52.398;9.646;2023-02-28T03:59:56;8.53;;;5.83;;
8159;SDS011;27404;52.398;9.646;2023-02-28T04:02:29;11.10;;;6.10;;
8159;SDS011;27404;52.398;9.646;2023-02-28T04:04:55;10.67;;;5.60;;
8159;SDS011;27404;52.398;9.646;2023-02-28T04:07:20;11.50;;;6.73;;
8159;SDS011;27404;52.398;9.646;2023-02-28T04:09:46;8.07;;;5.23;;
8159;SDS011;27404;52.398;9.646;2023-02-28T04:12:11;12.87;;;5.73;;
8159;SDS011;27404;52.398;9.646;2023-02-28T04:14:37;10.70;;;6.03;;
8159;SDS011;27404;52.398;9.646;2023-02-28T04:17:02;12.57;;;6.30;;
8159;SDS011;27404;52.398;9.646;2023-02-28T04:19:28;9.17;;;5.47;;
8159;SDS011;27404;52.398;9.646;2023-02-28T04:21:53;10.30;;;5.47;;
8159;SDS011;27404;52.398;9.646;2023-02-28T04:24:20;11.63;;;5.97;;
8159;SDS011;27404;52.398;9.646;2023-02-28T04:26:48;11.60;;;5.97;;
8159;SDS011;27404;52.398;9.646;2023-02-28T04:29:23;11.20;;;5.60;;
8159;SDS011;27404;52.398;9.646;2023-02-28T04:31:50;11.47;;;6.00;;
8159;SDS011;27404;52.398;9.646;2023-02-28T04:34:18;12.00;;;6.60;;
8159;SDS011;27404;52.398;9.646;2023-02-28T04:36:44;9.87;;;5.50;;
8159;SDS011;27404;52.398;9.646;2023-02-28T04:39:10;9.93;;;6.10;;
8159;SDS011;27404;52.398;9.646;2023-02-28T04:41:36;11.60;;;5.90;;
8159;SDS011;27404;52.398;9.646;2023-02-28T04:44:02;11.77;;;6.57;;
8159;SDS011;27404;52.398;9.646;2023-02-28T04:46:28;10.57;;;6.20;;
8159;SDS011;27404;52.398;9.646;2023-02-28T04:48:53;13.43;;;6.13;;
8159;SDS011;27404;52.398;9.646;2023-02-28T04:51:19;14.27;;;6.33;;
8159;SDS011;27404;52.398;9.646;2023-02-28T04:53:45;10.90;;;6.27;;
8159;SDS011;27404;52.398;9.646;2023-02-28T04:56:12;11.73;;;6.20;;
8159;SDS011;27404;52.398;9.646;2023-02-28T04:58:39;12.93;;;6.80;;
8159;SDS011;27404;52.398;9.646;2023-02-28T05:01:05;13.30;;;7.20;;
8159;SDS011;27404;52.398;9.646;2023-02-28T05:03:39;10.07;;;6.37;;
8159;SDS011;27404;52.398;9.646;2023-02-28T05:06:08;13.03;;;6.60;;
8159;SDS011;27404;52.398;9.646;2023-02-28T05:08:35;13.83;;;6.30;;
8159;SDS011;27404;52.398;9.646;2023-02-28T05:11:01;14.23;;;6.60;;
8159;SDS011;27404;52.398;9.646;2023-02-28T05:13:28;10.37;;;6.17;;
8159;SDS011;27404;52.398;9.646;2023-02-28T05:15:55;13.57;;;6.53;;
8159;SDS011;27404;52.398;9.646;2023-02-28T05:18:21;14.63;;;6.43;;
8159;SDS011;27404;52.398;9.646;2023-02-28T05:20:46;12.00;;;6.53;;
8159;SDS011;27404;52.398;9.646;2023-02-28T05:23:12;14.23;;;6.90;;
8159;SDS011;27404;52.398;9.646;2023-02-28T05:25:38;11.10;;;6.30;;
8159;SDS011;27404;52.398;9.646;2023-02-28T05:28:04;11.77;;;6.10;;
8159;SDS011;27404;52.398;9.646;2023-02-28T05:30:30;12.53;;;7.03;;
8159;SDS011;27404;52.398;9.646;2023-02-28T05:32:56;13.23;;;6.97;;
8159;SDS011;27404;52.398;9.646;2023-02-28T05:35:22;12.80;;;6.80;;
8159;SDS011;27404;52.398;9.646;2023-02-28T05:37:48;13.60;;;6.73;;
8159;SDS011;27404;52.398;9.646;2023-02-28T05:40:14;14.80;;;6.70;;
8159;SDS011;27404;52.398;9.646;2023-02-28T05:42:40;12.47;;;6.90;;
8159;SDS011;27404;52.398;9.646;2023-02-28T05:45:06;15.90;;;6.47;;
8159;SDS011;27404;52.398;9.646;2023-02-28T05:47:32;13.13;;;6.73;;
8159;SDS011;27404;52.398;9.646;2023-02-28T05:49:58;13.57;;;6.97;;
8159;SDS011;27404;52.398;9.646;2023-02-28T05:52:23;14.77;;;7.07;;
8159;SDS011;27404;52.398;9.646;2023-02-28T05:54:49;12.53;;;7.00;;
8159;SDS011;27404;52.398;9.646;2023-02-28T05:57:14;10.73;;;6.70;;
8159;SDS011;27404;52.398;9.646;2023-02-28T05:59:39;12.23;;;6.13;;
8159;SDS011;27404;52.398;9.646;2023-02-28T06:02:12;12.17;;;7.10;;
8159;SDS011;27404;52.398;9.646;2023-02-28T06:04:38;11.40;;;6.83;;
8159;SDS011;27404;52.398;9.646;2023-02-28T06:07:05;13.50;;;6.97;;
8159;SDS011;27404;52.398;9.646;2023-02-28T06:09:31;12.17;;;6.57;;
8159;SDS011;27404;52.398;9.646;2023-02-28T06:11:57;16.63;;;7.87;;
8159;SDS011;27404;52.398;9.646;2023-02-28T06:14:24;12.67;;;7.13;;
8159;SDS011;27404;52.398;9.646;2023-02-28T06:16:49;14.30;;;7.57;;
8159;SDS011;27404;52.398;9.646;2023-02-28T06:19:15;14.10;;;7.07;;
8159;SDS011;27404;52.398;9.646;2023-02-28T06:21:41;13.87;;;7.30;;
8159;SDS011;27404;52.398;9.646;2023-02-28T06:24:06;15.17;;;7.67;;
8159;SDS011;27404;52.398;9.646;2023-02-28T06:26:32;13.10;;;6.97;;
8159;SDS011;27404;52.398;9.646;2023-02-28T06:28:58;13.17;;;7.60;;
8159;SDS011;27404;52.398;9.646;2023-02-28T06:31:23;14.67;;;7.60;;
8159;SDS011;27404;52.398;9.646;2023-02-28T06:33:51;12.80;;;7.07;;
8159;SDS011;27404;52.398;9.646;2023-02-28T06:36:17;14.83;;;7.60;;
8159;SDS011;27404;52.398;9.646;2023-02-28T06:38:43;17.43;;;7.80;;
8159;SDS011;27404;52.398;9.646;2023-02-28T06:41:09;13.93;;;8.00;;
8159;SDS011;27404;52.398;9.646;2023-02-28T06:43:36;12.73;;;7.33;;
8159;SDS011;27404;52.398;9.646;2023-02-28T06:46:06;15.43;;;7.87;;
8159;SDS011;27404;52.398;9.646;2023-02-28T06:48:33;13.73;;;7.30;;
8159;SDS011;27404;52.398;9.646;2023-02-28T06:51:06;13.20;;;7.93;;
8159;SDS011;27404;52.398;9.646;2023-02-28T06:53:43;12.50;;;7.53;;
8159;SDS011;27404;52.398;9.646;2023-02-28T06:56:11;14.33;;;8.13;;
8159;SDS011;27404;52.398;9.646;2023-02-28T06:58:39;13.63;;;7.70;;
8159;SDS011;27404;52.398;9.646;2023-02-28T07:01:05;12.30;;;6.90;;
8159;SDS011;27404;52.398;9.646;2023-02-28T07:03:32;16.67;;;8.10;;
8159;SDS011;27404;52.398;9.646;2023-02-28T07:05:57;12.10;;;8.03;;
8159;SDS011;27404;52.398;9.646;2023-02-28T07:08:24;14.87;;;8.03;;
8159;SDS011;27404;52.398;9.646;2023-02-28T07:10:54;12.07;;;7.67;;
8159;SDS011;27404;52.398;9.646;2023-02-28T07:13:20;14.27;;;8.03;;
8159;SDS011;27404;52.398;9.646;2023-02-28T07:15:59;16.97;;;7.20;;
8159;SDS011;27404;52.398;9.646;2023-02-28T07:18:27;14.83;;;8.03;;
8159;SDS011;27404;52.398;9.646;2023-02-28T07:20:53;17.17;;;9.00;;
8159;SDS011;27404;52.398;9.646;2023-02-28T07:23:19;14.67;;;8.40;;
8159;SDS011;27404;52.398;9.646;2023-02-28T07:25:44;15.87;;;8.00;;
8159;SDS011;27404;52.398;9.646;2023-02-28T07:28:11;15.93;;;8.77;;
8159;SDS011;27404;52.398;9.646;2023-02-28T07:30:37;15.10;;;9.17;;
8159;SDS011;27404;52.398;9.646;2023-02-28T07:33:03;16.17;;;9.30;;
8159;SDS011;27404;52.398;9.646;2023-02-28T07:35:28;15.53;;;8.47;;
8159;SDS011;27404;52.398;9.646;2023-02-28T07:37:54;16.77;;;8.60;;
8159;SDS011;27404;52.398;9.646;2023-02-28T07:40:22;15.80;;;8.23;;
8159;SDS011;27404;52.398;9.646;2023-02-28T07:42:48;18.03;;;9.17;;
8159;SDS011;27404;52.398;9.646;2023-02-28T07:45:13;13.67;;;8.00;;
8159;SDS011;27404;52.398;9.646;2023-02-28T07:47:39;15.27;;;7.87;;
8159;SDS011;27404;52.398;9.646;2023-02-28T07:50:06;17.03;;;8.10;;
8159;SDS011;27404;52.398;9.646;2023-02-28T07:52:33;12.17;;;8.37;;
8159;SDS011;27404;52.398;9.646;2023-02-28T07:54:58;13.10;;;7.67;;
8159;SDS011;27404;52.398;9.646;2023-02-28T07:57:24;13.47;;;7.43;;
8159;SDS011;27404;52.398;9.646;2023-02-28T07:59:50;11.40;;;7.40;;
8159;SDS011;27404;52.398;9.646;2023-02-28T08:02:16;11.53;;;7.73;;
8159;SDS011;27404;52.398;9.646;2023-02-28T08:04:43;15.07;;;8.67;;
8159;SDS011;27404;52.398;9.646;2023-02-28T08:07:09;14.47;;;8.77;;
8159;SDS011;27404;52.398;9.646;2023-02-28T08:09:38;18.60;;;8.53;;
8159;SDS011;27404;52.398;9.646;2023-02-28T08:12:05;14.10;;;7.60;;
8159;SDS011;27404;52.398;9.646;2023-02-28T08:14:31;15.03;;;7.90;;
8159;SDS011;27404;52.398;9.646;2023-02-28T08:16:56;14.63;;;7.13;;
8159;SDS011;27404;52.398;9.646;2023-02-28T08:19:22;14.37;;;6.20;;
8159;SDS011;27404;52.398;9.646;2023-02-28T08:21:47;12.17;;;6.63;;
8159;SDS011;27404;52.398;9.646;2023-02-28T08:24:13;11.87;;;6.37;;
8159;SDS011;27404;52.398;9.646;2023-02-28T08:26:38;10.53;;;5.53;;
8159;SDS011;27404;52.398;9.646;2023-02-28T08:29:03;9.17;;;5.47;;
8159;SDS011;27404;52.398;9.646;2023-02-28T08:31:29;8.50;;;5.47;;
8159;SDS011;27404;52.398;9.646;2023-02-28T08:33:54;10.07;;;5.70;;
8159;SDS011;27404;52.398;9.646;2023-02-28T08:36:23;10.03;;;5.10;;
8159;SDS011;27404;52.398;9.646;2023-02-28T08:38:51;9.60;;;5.23;;
8159;SDS011;27404;52.398;9.646;2023-02-28T08:41:17;7.87;;;4.67;;
8159;SDS011;27404;52.398;9.646;2023-02-28T08:43:42;6.87;;;4.03;;
8159;SDS011;27404;52.398;9.646;2023-02-28T08:46:10;10.63;;;4.97;;
8159;SDS011;27404;52.398;9.646;2023-02-28T08:48:38;6.40;;;3.87;;
8159;SDS011;27404;52.398;9.646;2023-02-28T08:51:05;8.67;;;4.23;;
8159;SDS011;27404;52.398;9.646;2023-02-28T08:53:32;6.73;;;3.97;;
8159;SDS011;27404;52.398;9.646;2023-02-28T08:55:59;7.77;;;3.70;;
8159;SDS011;27404;52.398;9.646;2023-02-28T08:58:26;8.30;;;3.97;;
8159;SDS011;27404;52.398;9.646;2023-02-28T09:00:52;11.03;;;3.70;;
8159;SDS011;27404;52.398;9.646;2023-02-28T09:03:18;8.20;;;3.37;;
8159;SDS011;27404;52.398;9.646;2023-02-28T09:05:55;7.00;;;3.60;;
8159;SDS011;27404;52.398;9.646;2023-02-28T09:08:21;7.00;;;3.60;;
8159;SDS011;27404;52.398;9.646;2023-02-28T09:10:48;7.43;;;3.40;;
8159;SDS011;27404;52.398;9.646;2023-02-28T09:13:14;5.23;;;2.90;;
8159;SDS011;27404;52.398;9.646;2023-02-28T09:15:39;5.93;;;2.93;;
8159;SDS011;27404;52.398;9.646;2023-02-28T09:18:05;6.87;;;3.07;;
8159;SDS011;27404;52.398;9.646;2023-02-28T09:20:30;6.23;;;3.10;;
8159;SDS011;27404;52.398;9.646;2023-02-28T09:22:55;3.93;;;2.73;;
8159;SDS011;27404;52.398;9.646;2023-02-28T09:25:21;4.83;;;3.27;;
8159;SDS011;27404;52.398;9.646;2023-02-28T09:27:46;5.53;;;2.70;;
8159;SDS011;27404;52.398;9.646;2023-02-28T09:30:12;5.00;;;2.47;;
8159;SDS011;27404;52.398;9.646;2023-02-28T09:32:38;5.67;;;2.33;;
8159;SDS011;27404;52.398;9.646;2023-02-28T09:35:03;4.03;;;2.60;;
8159;SDS011;27404;52.398;9.646;2023-02-28T09:37:29;4.17;;;2.40;;
8159;SDS011;27404;52.398;9.646;2023-02-28T09:39:56;3.40;;;2.60;;
8159;SDS011;27404;52.398;9.646;2023-02-28T09:42:23;4.13;;;2.30;;
8159;SDS011;27404;52.398;9.646;2023-02-28T09:44:55;3.97;;;2.00;;
8159;SDS011;27404;52.398;9.646;2023-02-28T09:47:30;4.10;;;2.20;;
8159;SDS011;27404;52.398;9.646;2023-02-28T09:52:58;4.67;;;2.23;;
8159;SDS011;27404;52.398;9.646;2023-02-28T09:55:45;5.87;;;2.50;;
8159;SDS011;27404;52.398;9.646;2023-02-28T09:58:23;3.97;;;2.07;;
8159;SDS011;27404;52.398;9.646;2023-02-28T10:01:03;2.60;;;1.83;;
8159;SDS011;27404;52.398;9.646;2023-02-28T10:03:55;4.20;;;1.50;;
8159;SDS011;27404;52.398;9.646;2023-02-28T10:06:28;3.07;;;1.60;;
8159;SDS011;27404;52.398;9.646;2023-02-28T10:09:03;4.10;;;1.50;;
8159;SDS011;27404;52.398;9.646;2023-02-28T10:11:34;3.07;;;1.47;;
8159;SDS011;27404;52.398;9.646;2023-02-28T10:14:04;3.07;;;1.63;;
8159;SDS011;27404;52.398;9.646;2023-02-28T10:16:45;3.07;;;1.43;;
8159;SDS011;27404;52.398;9.646;2023-02-28T10:19:22;4.23;;;1.57;;
8159;SDS011;27404;52.398;9.646;2023-02-28T10:22:01;2.63;;;1.33;;
8159;SDS011;27404;52.398;9.646;2023-02-28T10:24:41;2.37;;;1.47;;
8159;SDS011;27404;52.398;9.646;2023-02-28T10:27:18;3.37;;;1.40;;
8159;SDS011;27404;52.398;9.646;2023-02-28T10:29:49;4.07;;;1.60;;
8159;SDS011;27404;52.398;9.646;2023-02-28T10:32:18;3.67;;;1.60;;
8159;SDS011;27404;52.398;9.646;2023-02-28T10:34:51;3.10;;;1.20;;
8159;SDS011;27404;52.398;9.646;2023-02-28T10:37:20;3.43;;;1.40;;
8159;SDS011;27404;52.398;9.646;2023-02-28T10:39:46;2.50;;;1.40;;
8159;SDS011;27404;52.398;9.646;2023-02-28T10:42:22;2.50;;;1.40;;
8159;SDS011;27404;52.398;9.646;2023-02-28T10:44:57;2.27;;;1.40;;
8159;SDS011;27404;52.398;9.646;2023-02-28T10:47:33;2.40;;;1.47;;
8159;SDS011;27404;52.398;9.646;2023-02-28T10:50:01;2.83;;;1.50;;
8159;SDS011;27404;52.398;9.646;2023-02-28T10:52:35;2.00;;;1.27;;
8159;SDS011;27404;52.398;9.646;2023-02-28T10:57:59;2.70;;;1.30;;
8159;SDS011;27404;52.398;9.646;2023-02-28T11:00:25;3.37;;;1.30;;
8159;SDS011;27404;52.398;9.646;2023-02-28T11:02:56;4.20;;;1.27;;
8159;SDS011;27404;52.398;9.646;2023-02-28T11:05:32;1.80;;;1.10;;
8159;SDS011;27404;52.398;9.646;2023-02-28T11:08:03;2.57;;;1.50;;
8159;SDS011;27404;52.398;9.646;2023-02-28T11:10:35;3.20;;;1.20;;
8159;SDS011;27404;52.398;9.646;2023-02-28T11:13:01;3.03;;;1.00;;
8159;SDS011;27404;52.398;9.646;2023-02-28T11:15:28;1.90;;;1.10;;
8159;SDS011;27404;52.398;9.646;2023-02-28T11:20:31;2.10;;;1.20;;
8159;SDS011;27404;52.398;9.646;2023-02-28T11:22:58;3.67;;;1.43;;
8159;SDS011;27404;52.398;9.646;2023-02-28T11:25:35;2.20;;;1.23;;
8159;SDS011;27404;52.398;9.646;2023-02-28T11:28:08;2.10;;;1.20;;
8159;SDS011;27404;52.398;9.646;2023-02-28T11:31:01;3.73;;;1.40;;
8159;SDS011;27404;52.398;9.646;2023-02-28T11:33:28;2.17;;;1.30;;
8159;SDS011;27404;52.398;9.646;2023-02-28T11:36:08;2.50;;;1.00;;
8159;SDS011;27404;52.398;9.646;2023-02-28T11:38:37;3.00;;;1.40;;
8159;SDS011;27404;52.398;9.646;2023-02-28T11:44:03;5.00;;;1.27;;
8159;SDS011;27404;52.398;9.646;2023-02-28T11:46:35;2.67;;;1.23;;
8159;SDS011;27404;52.398;9.646;2023-02-28T11:52:21;2.13;;;0.90;;
8159;SDS011;27404;52.398;9.646;2023-02-28T11:55:38;2.93;;;1.30;;
8159;SDS011;27404;52.398;9.646;2023-02-28T12:01:27;2.67;;;1.03;;
8159;SDS011;27404;52.398;9.646;2023-02-28T12:03:31;3.20;;;1.20;;
8159;SDS011;27404;52.398;9.646;2023-02-28T12:06:18;1.93;;;1.00;;
8159;SDS011;27404;52.398;9.646;2023-02-28T12:08:54;2.63;;;0.90;;
8159;SDS011;27404;52.398;9.646;2023-02-28T12:11:51;3.43;;;1.40;;
8159;SDS011;27404;52.398;9.646;2023-02-28T12:14:26;4.17;;;1.30;;
8159;SDS011;27404;52.398;9.646;2023-02-28T12:27:37;2.43;;;1.30;;
8159;SDS011;27404;52.398;9.646;2023-02-28T12:30:12;1.70;;;1.17;;
8159;SDS011;27404;52.398;9.646;2023-02-28T12:32:43;5.30;;;1.20;;
8159;SDS011;27404;52.398;9.646;2023-02-28T12:35:13;2.47;;;1.27;;
8159;SDS011;27404;52.398;9.646;2023-02-28T12:37:57;2.73;;;1.20;;
8159;SDS011;27404;52.398;9.646;2023-02-28T12:40:31;3.13;;;1.30;;
8159;SDS011;27404;52.398;9.646;2023-02-28T12:43:07;3.13;;;2.00;;
8159;SDS011;27404;52.398;9.646;2023-02-28T12:48:07;2.03;;;1.20;;
8159;SDS011;27404;52.398;9.646;2023-02-28T12:50:38;1.87;;;1.27;;
8159;SDS011;27404;52.398;9.646;2023-02-28T12:53:21;2.23;;;1.20;;
8159;SDS011;27404;52.398;9.646;2023-02-28T12:56:03;3.63;;;1.20;;
8159;SDS011;27404;52.398;9.646;2023-02-28T12:58:39;1.90;;;1.10;;
8159;SDS011;27404;52.398;9.646;2023-02-28T13:09:39;3.27;;;1.20;;
8159;SDS011;27404;52.398;9.646;2023-02-28T13:12:12;2.10;;;1.03;;
8159;SDS011;27404;52.398;9.646;2023-02-28T13:14:39;2.90;;;1.50;;
8159;SDS011;27404;52.398;9.646;2023-02-28T13:19:41;2.73;;;1.70;;
8159;SDS011;27404;52.398;9.646;2023-02-28T13:22:50;4.40;;;1.77;;
8159;SDS011;27404;52.398;9.646;2023-02-28T13:27:47;3.47;;;1.67;;
8159;SDS011;27404;52.398;9.646;2023-02-28T13:38:41;3.60;;;1.83;;
8159;SDS011;27404;52.398;9.646;2023-02-28T13:44:09;3.67;;;1.63;;
8159;SDS011;27404;52.398;9.646;2023-02-28T14:07:45;4.67;;;1.70;;
8159;SDS011;27404;52.398;9.646;2023-02-28T14:10:21;3.80;;;2.00;;
8159;SDS011;27404;52.398;9.646;2023-02-28T14:16:00;3.47;;;1.60;;
8159;SDS011;27404;52.398;9.646;2023-02-28T14:18:32;3.47;;;1.63;;
8159;SDS011;27404;52.398;9.646;2023-02-28T14:21:02;2.97;;;1.60;;
8159;SDS011;27404;52.398;9.646;2023-02-28T14:32:33;3.13;;;1.70;;
8159;SDS011;27404;52.398;9.646;2023-02-28T14:37:59;2.90;;;1.90;;
8159;SDS011;27404;52.398;9.646;2023-02-28T14:40:29;3.90;;;1.93;;
8159;SDS011;27404;52.398;9.646;2023-02-28T14:43:01;4.87;;;1.90;;
8159;SDS011;27404;52.398;9.646;2023-02-28T14:45:30;3.50;;;1.90;;
8159;SDS011;27404;52.398;9.646;2023-02-28T14:47:57;4.40;;;1.83;;
8159;SDS011;27404;52.398;9.646;2023-02-28T14:50:30;2.83;;;2.03;;
8159;SDS011;27404;52.398;9.646;2023-02-28T14:52:58;2.67;;;1.63;;
8159;SDS011;27404;52.398;9.646;2023-02-28T14:55:45;2.97;;;1.90;;
8159;SDS011;27404;52.398;9.646;2023-02-28T14:58:22;4.80;;;1.97;;
8159;SDS011;27404;52.398;9.646;2023-02-28T15:00:59;4.73;;;1.80;;
8159;SDS011;27404;52.398;9.646;2023-02-28T15:05:57;5.40;;;2.07;;
8159;SDS011;27404;52.398;9.646;2023-02-28T15:08:28;3.77;;;1.97;;
8159;SDS011;27404;52.398;9.646;2023-02-28T15:10:57;4.10;;;1.80;;
8159;SDS011;27404;52.398;9.646;2023-02-28T15:13:45;7.77;;;2.00;;
8159;SDS011;27404;52.398;9.646;2023-02-28T15:16:22;3.47;;;1.80;;
8159;SDS011;27404;52.398;9.646;2023-02-28T15:18:56;3.20;;;1.67;;
8159;SDS011;27404;52.398;9.646;2023-02-28T15:21:41;5.83;;;1.70;;
8159;SDS011;27404;52.398;9.646;2023-02-28T15:24:17;4.30;;;1.73;;
8159;SDS011;27404;52.398;9.646;2023-02-28T15:26:52;4.90;;;2.10;;
8159;SDS011;27404;52.398;9.646;2023-02-28T15:29:22;3.17;;;1.83;;
8159;SDS011;27404;52.398;9.646;2023-02-28T15:32:20;3.33;;;2.00;;
8159;SDS011;27404;52.398;9.646;2023-02-28T15:34:46;2.73;;;1.50;;
8159;SDS011;27404;52.398;9.646;2023-02-28T15:40:28;3.13;;;1.70;;
8159;SDS011;27404;52.398;9.646;2023-02-28T15:43:04;5.23;;;1.60;;
8159;SDS011;27404;52.398;9.646;2023-02-28T15:45:38;2.27;;;1.50;;
8159;SDS011;27404;52.398;9.646;2023-02-28T15:48:12;3.40;;;1.83;;
8159;SDS011;27404;52.398;9.646;2023-02-28T15:51:06;3.47;;;1.80;;
8159;SDS011;27404;52.398;9.646;2023-02-28T15:53:33;3.87;;;1.93;;
8159;SDS011;27404;52.398;9.646;2023-02-28T15:56:07;3.77;;;2.00;;
8159;SDS011;27404;52.398;9.646;2023-02-28T15:58:50;3.63;;;1.70;;
8159;SDS011;27404;52.398;9.646;2023-02-28T16:01:23;3.57;;;1.67;;
8159;SDS011;27404;52.398;9.646;2023-02-28T16:03:55;4.10;;;2.00;;
8159;SDS011;27404;52.398;9.646;2023-02-28T16:06:42;3.70;;;1.80;;
8159;SDS011;27404;52.398;9.646;2023-02-28T16:09:22;2.80;;;1.60;;
8159;SDS011;27404;52.398;9.646;2023-02-28T16:11:48;4.63;;;2.10;;
8159;SDS011;27404;52.398;9.646;2023-02-28T16:14:16;4.07;;;1.97;;
8159;SDS011;27404;52.398;9.646;2023-02-28T16:16:45;3.00;;;1.80;;
8159;SDS011;27404;52.398;9.646;2023-02-28T16:19:13;6.10;;;2.17;;
8159;SDS011;27404;52.398;9.646;2023-02-28T16:21:38;6.10;;;2.03;;
8159;SDS011;27404;52.398;9.646;2023-02-28T16:24:03;3.17;;;1.63;;
8159;SDS011;27404;52.398;9.646;2023-02-28T16:26:29;4.93;;;1.83;;
8159;SDS011;27404;52.398;9.646;2023-02-28T16:28:55;5.10;;;2.00;;
8159;SDS011;27404;52.398;9.646;2023-02-28T16:31:20;3.13;;;1.73;;
8159;SDS011;27404;52.398;9.646;2023-02-28T16:33:46;3.77;;;1.97;;
8159;SDS011;27404;52.398;9.646;2023-02-28T16:36:13;3.37;;;1.93;;
8159;SDS011;27404;52.398;9.646;2023-02-28T16:38:44;5.30;;;3.60;;
8159;SDS011;27404;52.398;9.646;2023-02-28T16:41:20;3.83;;;2.30;;
8159;SDS011;27404;52.398;9.646;2023-02-28T16:43:48;3.37;;;2.00;;
8159;SDS011;27404;52.398;9.646;2023-02-28T16:46:16;3.70;;;2.23;;
8159;SDS011;27404;52.398;9.646;2023-02-28T16:48:43;3.77;;;2.10;;
8159;SDS011;27404;52.398;9.646;2023-02-28T16:51:15;3.37;;;1.80;;
8159;SDS011;27404;52.398;9.646;2023-02-28T16:53:41;5.17;;;2.40;;
8159;SDS011;27404;52.398;9.646;2023-02-28T16:56:42;4.37;;;2.20;;
8159;SDS011;27404;52.398;9.646;2023-02-28T16:59:00;6.20;;;2.17;;
8159;SDS011;27404;52.398;9.646;2023-02-28T17:01:26;4.80;;;2.20;;
8159;SDS011;27404;52.398;9.646;2023-02-28T17:03:53;4.43;;;2.23;;
8159;SDS011;27404;52.398;9.646;2023-02-28T17:06:24;4.73;;;2.37;;
8159;SDS011;27404;52.398;9.646;2023-02-28T17:08:54;4.97;;;1.90;;
8159;SDS011;27404;52.398;9.646;2023-02-28T17:11:20;4.80;;;2.37;;
8159;SDS011;27404;52.398;9.646;2023-02-28T17:13:46;5.17;;;2.57;;
8159;SDS011;27404;52.398;9.646;2023-02-28T17:16:28;6.13;;;2.57;;
8159;SDS011;27404;52.398;9.646;2023-02-28T17:18:59;4.50;;;2.40;;
8159;SDS011;27404;52.398;9.646;2023-02-28T17:21:27;4.53;;;2.40;;
8159;SDS011;27404;52.398;9.646;2023-02-28T17:23:52;5.47;;;2.60;;
8159;SDS011;27404;52.398;9.646;2023-02-28T17:26:19;2.70;;;2.00;;
8159;SDS011;27404;52.398;9.646;2023-02-28T17:28:47;5.33;;;2.37;;
8159;SDS011;27404;52.398;9.646;2023-02-28T17:31:13;5.03;;;2.50;;